createdAt,value
2022-11-22T00:00:49.675Z,4.88
2022-11-22T00:03:17.725Z,4.40
2022-11-22T00:05:45.510Z,4.80
2022-11-22T00:08:13.780Z,4.72
2022-11-22T00:10:43.260Z,4.43
2022-11-22T00:13:11.221Z,4.95
2022-11-22T00:15:39.001Z,4.70
2022-11-22T00:18:06.856Z,4.57
2022-11-22T00:20:34.926Z,5.10
2022-11-22T00:23:02.719Z,4.82
2022-11-22T00:25:30.513Z,4.45
2022-11-22T00:27:59.638Z,4.50
2022-11-22T00:30:27.400Z,4.32
2022-11-22T00:32:55.160Z,5.18
2022-11-22T00:35:22.984Z,4.30
2022-11-22T00:37:50.752Z,4.20
2022-11-22T00:40:18.793Z,4.97
2022-11-22T00:42:46.544Z,4.25
2022-11-22T00:45:15.703Z,3.78
2022-11-22T00:47:43.529Z,3.88
2022-11-22T00:50:11.683Z,3.80
2022-11-22T00:52:39.448Z,3.65
2022-11-22T00:55:08.351Z,4.32
2022-11-22T00:57:36.119Z,4.03
2022-11-22T01:00:05.079Z,4.13
2022-11-22T01:02:34.240Z,3.58
2022-11-22T01:05:01.986Z,3.35
2022-11-22T01:07:29.814Z,3.40
2022-11-22T01:09:58.037Z,3.33
2022-11-22T01:12:25.831Z,3.25
2022-11-22T01:14:53.592Z,3.38
2022-11-22T01:17:21.372Z,3.10
2022-11-22T01:19:50.481Z,3.58
2022-11-22T01:22:18.305Z,3.72
2022-11-22T01:24:46.125Z,3.10
2022-11-22T01:27:13.929Z,3.05
2022-11-22T01:29:41.778Z,3.42
2022-11-22T01:32:09.578Z,3.97
2022-11-22T01:34:37.349Z,2.83
2022-11-22T01:37:06.476Z,3.85
2022-11-22T01:39:34.344Z,2.70
2022-11-22T01:42:02.127Z,2.85
2022-11-22T01:44:32.033Z,3.08
2022-11-22T01:47:01.919Z,3.08
2022-11-22T01:49:34.738Z,2.88
2022-11-22T01:52:07.912Z,3.38
2022-11-22T01:54:39.458Z,3.40
2022-11-22T01:57:13.205Z,3.60
2022-11-22T01:59:45.304Z,3.00
2022-11-22T02:02:14.366Z,3.33
2022-11-22T02:04:43.558Z,3.23
2022-11-22T02:07:19.552Z,2.95
2022-11-22T02:09:49.306Z,3.95
2022-11-22T02:12:18.135Z,3.05
2022-11-22T02:14:46.581Z,3.28
2022-11-22T02:17:14.494Z,3.13
2022-11-22T02:19:45.124Z,3.05
2022-11-22T02:22:25.774Z,3.20
2022-11-22T02:24:58.598Z,3.22
2022-11-22T02:27:27.806Z,3.35
2022-11-22T02:29:55.573Z,2.72
2022-11-22T02:32:23.326Z,2.72
2022-11-22T02:34:52.700Z,3.25
2022-11-22T02:37:23.599Z,3.03
2022-11-22T02:39:57.168Z,3.55
2022-11-22T02:42:27.041Z,3.00
2022-11-22T02:44:54.895Z,2.60
2022-11-22T02:47:22.841Z,3.22
2022-11-22T02:49:50.597Z,2.70
2022-11-22T02:52:19.102Z,2.85
2022-11-22T02:54:47.449Z,2.83
2022-11-22T02:57:15.505Z,2.85
2022-11-22T02:59:44.693Z,2.45
2022-11-22T03:02:12.461Z,3.10
2022-11-22T03:04:40.231Z,2.30
2022-11-22T03:07:08.052Z,2.08
2022-11-22T03:09:35.970Z,2.70
2022-11-22T03:12:03.824Z,2.08
2022-11-22T03:14:31.579Z,2.05
2022-11-22T03:17:01.064Z,2.15
2022-11-22T03:19:29.065Z,2.28
2022-11-22T03:21:57.041Z,1.60
2022-11-22T03:24:24.798Z,2.00
2022-11-22T03:26:52.570Z,1.65
2022-11-22T03:29:20.389Z,1.50
2022-11-22T03:31:48.169Z,2.35
2022-11-22T03:34:17.358Z,1.88
2022-11-22T03:36:45.385Z,1.85
2022-11-22T03:39:13.214Z,1.88
2022-11-22T03:41:40.997Z,2.20
2022-11-22T03:44:08.821Z,2.00
2022-11-22T03:46:36.647Z,1.60
2022-11-22T03:49:04.828Z,2.05
2022-11-22T03:51:33.929Z,1.20
2022-11-22T03:54:01.709Z,3.22
2022-11-22T03:56:29.621Z,2.28
2022-11-22T03:58:57.373Z,1.95
2022-11-22T04:01:25.287Z,2.30
2022-11-22T04:03:53.230Z,1.67
2022-11-22T04:06:21.043Z,1.70
2022-11-22T04:08:50.493Z,1.70
2022-11-22T04:11:18.317Z,1.77
2022-11-22T04:14:03.620Z,2.00
2022-11-22T04:16:31.417Z,2.20
2022-11-22T04:18:59.185Z,1.60
2022-11-22T04:21:35.060Z,1.45
2022-11-22T04:24:23.461Z,2.58
2022-11-22T04:26:51.745Z,2.67
2022-11-22T04:29:20.328Z,1.55
2022-11-22T04:32:06.477Z,2.08
2022-11-22T04:34:35.008Z,1.60
2022-11-22T04:37:03.668Z,1.55
2022-11-22T04:39:33.050Z,2.20
2022-11-22T04:42:15.056Z,2.20
2022-11-22T04:44:43.325Z,1.40
2022-11-22T04:47:12.603Z,2.30
2022-11-22T04:49:40.426Z,1.20
2022-11-22T04:52:22.151Z,1.40
2022-11-22T04:54:51.514Z,1.85
2022-11-22T04:57:19.321Z,2.47
2022-11-22T04:59:47.133Z,2.13
2022-11-22T05:02:14.897Z,2.13
2022-11-22T05:04:46.311Z,1.83
2022-11-22T05:07:18.191Z,1.52
2022-11-22T05:09:46.035Z,1.83
2022-11-22T05:12:15.144Z,2.30
2022-11-22T05:14:42.928Z,1.85
2022-11-22T05:17:13.415Z,1.98
2022-11-22T05:19:45.021Z,2.00
2022-11-22T05:22:17.377Z,1.60
2022-11-22T05:24:44.163Z,1.55
2022-11-22T05:27:11.937Z,1.50
2022-11-22T05:29:41.022Z,2.72
2022-11-22T05:32:08.801Z,2.08
2022-11-22T05:34:36.546Z,1.58
2022-11-22T05:37:04.607Z,1.98
2022-11-22T05:39:32.575Z,1.95
2022-11-22T05:42:00.504Z,1.83
2022-11-22T05:44:28.417Z,2.08
2022-11-22T05:46:57.574Z,2.15
2022-11-22T05:49:25.421Z,2.70
2022-11-22T05:51:53.295Z,1.67
2022-11-22T05:54:21.074Z,2.15
2022-11-22T05:56:48.873Z,3.22
2022-11-22T05:59:16.649Z,2.20
2022-11-22T06:01:44.530Z,3.40
2022-11-22T06:04:13.706Z,1.90
2022-11-22T06:06:41.546Z,2.38
2022-11-22T06:09:09.305Z,2.73
2022-11-22T06:11:37.131Z,2.40
2022-11-22T06:14:04.997Z,2.17
2022-11-22T06:16:32.861Z,2.60
2022-11-22T06:19:00.625Z,1.90
2022-11-22T06:21:29.828Z,3.33
2022-11-22T06:23:57.899Z,3.10
2022-11-22T06:26:26.523Z,3.20
2022-11-22T06:28:55.863Z,2.42
2022-11-22T06:31:25.112Z,2.92
2022-11-22T06:33:55.126Z,2.60
2022-11-22T06:36:24.831Z,2.70
2022-11-22T06:38:54.048Z,2.95
2022-11-22T06:41:24.262Z,3.97
2022-11-22T06:43:53.904Z,2.50
2022-11-22T06:46:23.710Z,3.03
2022-11-22T06:48:52.066Z,2.85
2022-11-22T06:51:21.712Z,3.25
2022-11-22T06:53:50.829Z,3.10
2022-11-22T06:56:22.916Z,2.90
2022-11-22T06:58:52.498Z,2.95
2022-11-22T07:01:22.427Z,3.00
2022-11-22T07:03:51.217Z,3.33
2022-11-22T07:06:20.129Z,3.10
2022-11-22T07:08:48.214Z,3.35
2022-11-22T07:11:18.110Z,3.10
2022-11-22T07:13:49.889Z,4.72
2022-11-22T07:16:20.141Z,6.07
2022-11-22T07:18:48.257Z,3.90
2022-11-22T07:21:17.889Z,4.80
2022-11-22T07:23:47.464Z,4.97
2022-11-22T07:26:16.626Z,5.07
2022-11-22T07:28:45.112Z,4.65
2022-11-22T07:31:15.806Z,5.05
2022-11-22T07:33:44.116Z,5.75
2022-11-22T07:36:14.349Z,7.70
2022-11-22T07:38:42.547Z,5.10
2022-11-22T07:41:10.612Z,5.97
2022-11-22T07:43:38.752Z,6.32
2022-11-22T07:46:09.082Z,5.13
2022-11-22T07:48:38.191Z,5.38
2022-11-22T07:51:06.698Z,5.90
2022-11-22T07:53:35.724Z,6.95
2022-11-22T07:56:04.031Z,7.23
2022-11-22T07:58:32.369Z,8.60
2022-11-22T08:01:04.885Z,6.00
2022-11-22T08:03:32.687Z,6.72
2022-11-22T08:06:02.164Z,6.13
2022-11-22T08:08:30.192Z,7.07
2022-11-22T08:10:58.124Z,5.97
2022-11-22T08:13:26.400Z,9.00
2022-11-22T08:15:55.549Z,6.88
2022-11-22T08:18:25.357Z,6.70
2022-11-22T08:20:53.127Z,7.05
2022-11-22T08:23:22.302Z,8.00
2022-11-22T08:25:50.103Z,9.30
2022-11-22T08:28:17.848Z,8.60
2022-11-22T08:30:45.635Z,8.07
2022-11-22T08:33:13.397Z,6.93
2022-11-22T08:35:41.174Z,8.90
2022-11-22T08:38:08.951Z,8.55
2022-11-22T08:40:40.978Z,8.10
2022-11-22T08:43:09.113Z,9.82
2022-11-22T08:45:36.884Z,9.90
2022-11-22T08:48:04.933Z,9.65
2022-11-22T08:50:32.738Z,9.38
2022-11-22T08:53:01.711Z,9.65
2022-11-22T08:55:29.487Z,8.82
2022-11-22T08:58:01.658Z,9.60
2022-11-22T09:00:33.441Z,7.93
2022-11-22T09:03:01.524Z,10.30
2022-11-22T09:05:29.487Z,8.57
2022-11-22T09:10:45.074Z,11.10
2022-11-22T09:13:14.202Z,7.88
2022-11-22T09:15:41.984Z,8.53
2022-11-22T09:18:09.859Z,11.32
2022-11-22T09:20:37.704Z,8.90
2022-11-22T09:23:05.493Z,8.73
2022-11-22T09:25:33.266Z,8.30
2022-11-22T09:28:02.609Z,11.75
2022-11-22T09:30:32.141Z,8.07
2022-11-22T09:32:59.937Z,8.40
2022-11-22T09:35:27.732Z,6.97
2022-11-22T09:37:55.491Z,9.43
2022-11-22T09:40:23.833Z,8.68
2022-11-22T09:43:14.416Z,8.10
2022-11-22T09:46:03.844Z,6.60
2022-11-22T09:48:48.256Z,7.35
2022-11-22T09:51:21.504Z,8.27
2022-11-22T09:53:54.973Z,8.77
2022-11-22T09:56:28.024Z,5.93
2022-11-22T09:58:59.346Z,8.27
2022-11-22T10:01:32.679Z,7.95
2022-11-22T10:04:06.363Z,7.60
2022-11-22T10:06:36.670Z,6.85
2022-11-22T10:09:21.266Z,7.10
2022-11-22T10:11:52.997Z,8.40
2022-11-22T10:14:30.274Z,7.10
2022-11-22T10:17:05.792Z,6.40
2022-11-22T10:19:40.337Z,7.25
2022-11-22T10:22:12.152Z,6.35
2022-11-22T10:24:39.909Z,5.93
2022-11-22T10:27:14.086Z,7.07
2022-11-22T10:29:46.996Z,6.13
2022-11-22T10:32:21.258Z,7.30
2022-11-22T10:35:06.013Z,7.78
2022-11-22T10:37:43.747Z,7.27
2022-11-22T10:40:19.665Z,6.40
2022-11-22T10:43:04.631Z,5.15
2022-11-22T10:45:36.897Z,5.70
2022-11-22T10:48:14.860Z,7.35
2022-11-22T10:50:52.812Z,7.32
2022-11-22T10:53:28.633Z,7.50
2022-11-22T10:56:04.225Z,10.40
2022-11-22T10:58:41.526Z,5.72
2022-11-22T11:01:19.136Z,6.10
2022-11-22T11:03:52.146Z,7.70
2022-11-22T11:06:38.099Z,8.65
2022-11-22T11:12:14.507Z,6.10
2022-11-22T11:14:47.010Z,6.15
2022-11-22T11:17:19.054Z,10.68
2022-11-22T11:19:51.335Z,6.60
2022-11-22T11:22:42.827Z,11.02
2022-11-22T11:25:40.148Z,5.90
2022-11-22T11:28:11.845Z,7.82
2022-11-22T11:30:42.830Z,7.65
2022-11-22T11:33:28.716Z,6.20
2022-11-22T11:36:03.315Z,6.75
2022-11-22T11:38:34.485Z,8.05
2022-11-22T11:41:21.330Z,8.53
2022-11-22T11:43:50.475Z,7.63
2022-11-22T11:46:20.522Z,5.47
2022-11-22T11:48:49.309Z,6.03
2022-11-22T11:51:25.614Z,6.32
2022-11-22T11:54:01.551Z,8.05
2022-11-22T11:56:47.264Z,5.47
2022-11-22T11:59:17.931Z,8.13
2022-11-22T12:01:54.069Z,5.40
2022-11-22T12:04:25.966Z,6.32
2022-11-22T12:07:03.804Z,6.63
2022-11-22T12:09:35.280Z,7.45
2022-11-22T12:12:16.164Z,6.90
2022-11-22T12:15:10.209Z,6.43
2022-11-22T12:17:42.704Z,6.70
2022-11-22T12:20:15.485Z,5.38
2022-11-22T12:22:54.374Z,6.50
2022-11-22T12:25:32.902Z,8.30
2022-11-22T12:28:19.629Z,4.78
2022-11-22T12:30:52.536Z,6.90
2022-11-22T12:33:25.640Z,6.57
2022-11-22T12:35:56.258Z,6.72
2022-11-22T12:38:31.151Z,8.85
2022-11-22T12:41:03.856Z,5.63
2022-11-22T12:43:36.996Z,5.43
2022-11-22T12:46:11.233Z,5.23
2022-11-22T12:48:48.720Z,5.03
2022-11-22T12:51:24.680Z,6.40
2022-11-22T12:53:56.335Z,6.00
2022-11-22T12:56:33.388Z,7.05
2022-11-22T12:59:08.260Z,23.90
2022-11-22T13:01:44.156Z,4.75
2022-11-22T13:04:19.183Z,4.28
2022-11-22T13:06:53.100Z,6.20
2022-11-22T13:09:24.858Z,5.17
2022-11-22T13:11:59.863Z,5.32
2022-11-22T13:14:35.894Z,5.75
2022-11-22T13:17:08.275Z,5.47
2022-11-22T13:19:45.239Z,6.23
2022-11-22T13:22:22.530Z,5.90
2022-11-22T13:25:03.431Z,6.22
2022-11-22T13:27:36.075Z,5.47
2022-11-22T13:30:04.856Z,6.43
2022-11-22T13:32:34.490Z,7.28
2022-11-22T13:35:08.089Z,5.18
2022-11-22T13:37:39.764Z,6.00
2022-11-22T13:40:23.828Z,5.07
2022-11-22T13:43:25.197Z,4.07
2022-11-22T13:45:54.411Z,5.05
2022-11-22T13:48:55.467Z,7.03
2022-11-22T13:51:52.244Z,5.68
2022-11-22T13:54:40.909Z,5.55
2022-11-22T14:00:40.934Z,6.90
2022-11-22T14:03:40.723Z,7.03
2022-11-22T14:06:31.471Z,4.47
2022-11-22T14:09:29.009Z,5.43
2022-11-22T14:11:57.064Z,5.47
2022-11-22T14:14:34.812Z,7.18
2022-11-22T14:17:14.786Z,6.43
2022-11-22T14:19:57.330Z,6.30
2022-11-22T14:22:32.650Z,10.20
2022-11-22T14:25:21.089Z,7.40
2022-11-22T14:27:55.651Z,5.88
2022-11-22T14:30:24.514Z,8.38
2022-11-22T14:33:01.521Z,7.45
2022-11-22T14:35:32.666Z,6.00
2022-11-22T14:38:40.169Z,5.80
2022-11-22T14:41:46.997Z,5.60
2022-11-22T14:44:19.077Z,6.93
2022-11-22T14:46:54.396Z,6.40
2022-11-22T14:49:34.034Z,7.95
2022-11-22T14:52:03.239Z,9.67
2022-11-22T14:54:50.464Z,6.80
2022-11-22T14:57:21.604Z,5.85
2022-11-22T15:00:07.073Z,7.45
2022-11-22T15:03:23.078Z,8.05
2022-11-22T15:09:24.043Z,5.80
2022-11-22T15:09:46.569Z,6.47
2022-11-22T15:12:46.725Z,7.13
2022-11-22T15:59:11.986Z,6.53
2022-11-22T16:01:41.530Z,7.13
2022-11-22T16:04:21.410Z,7.03
2022-11-22T16:06:50.005Z,7.13
2022-11-22T16:09:26.513Z,5.57
2022-11-22T16:12:01.328Z,8.75
2022-11-22T16:14:43.696Z,6.03
2022-11-22T16:17:29.569Z,7.03
2022-11-22T16:20:26.764Z,6.50
2022-11-22T16:23:19.743Z,5.70
2022-11-22T16:25:49.785Z,5.70
2022-11-22T16:28:33.311Z,4.68
2022-11-22T16:31:04.193Z,5.72
2022-11-22T16:33:32.417Z,6.88
2022-11-22T16:36:01.605Z,4.85
2022-11-22T16:38:30.161Z,5.82
2022-11-22T16:40:59.598Z,6.63
2022-11-22T16:43:35.176Z,5.90
2022-11-22T16:46:03.285Z,5.82
2022-11-22T16:48:32.942Z,6.70
2022-11-22T16:51:04.618Z,6.13
2022-11-22T16:53:40.891Z,6.32
2022-11-22T16:56:09.933Z,6.18
2022-11-22T16:58:39.582Z,4.82
2022-11-22T17:01:09.316Z,5.88
2022-11-22T17:03:39.941Z,8.18
2022-11-22T17:06:08.254Z,6.50
2022-11-22T17:08:36.043Z,6.83
2022-11-22T17:11:03.869Z,4.53
2022-11-22T17:13:31.621Z,5.03
2022-11-22T17:16:00.933Z,5.55
2022-11-22T17:18:29.692Z,5.80
2022-11-22T17:20:57.574Z,8.10
2022-11-22T17:23:30.198Z,5.55
2022-11-22T17:25:58.041Z,6.63
2022-11-22T17:28:25.796Z,4.80
2022-11-22T17:30:53.941Z,6.28
2022-11-22T17:33:24.811Z,7.20
2022-11-22T17:35:52.868Z,5.27
2022-11-22T17:38:20.665Z,5.28
2022-11-22T17:40:49.957Z,5.43
2022-11-22T17:43:17.727Z,3.72
2022-11-22T17:45:45.594Z,4.25
2022-11-22T17:48:13.833Z,5.72
2022-11-22T17:50:42.991Z,5.40
2022-11-22T17:53:10.810Z,7.25
2022-11-22T17:58:27.260Z,6.25
2022-11-22T18:01:03.311Z,5.28
2022-11-22T18:03:31.520Z,7.50
2022-11-22T18:06:00.770Z,5.95
2022-11-22T18:08:29.386Z,4.60
2022-11-22T18:10:59.577Z,7.88
2022-11-22T18:13:28.205Z,5.10
2022-11-22T18:16:03.166Z,5.57
2022-11-22T18:21:21.013Z,4.97
2022-11-22T18:23:48.999Z,6.13
2022-11-22T18:26:38.696Z,4.07
2022-11-22T18:31:53.839Z,4.95
2022-11-22T18:34:22.427Z,5.00
2022-11-22T18:37:00.462Z,5.72
2022-11-22T18:39:30.870Z,6.22
2022-11-22T18:41:59.041Z,4.57
2022-11-22T18:44:26.874Z,5.32
2022-11-22T18:46:54.768Z,7.68
2022-11-22T18:49:22.886Z,5.72
2022-11-22T18:51:52.065Z,6.03
2022-11-22T18:54:21.827Z,5.65
2022-11-22T18:56:49.925Z,5.80
2022-11-22T18:59:18.017Z,7.00
2022-11-22T19:01:46.273Z,5.57
2022-11-22T19:04:14.953Z,5.55
2022-11-22T19:06:43.337Z,7.15
2022-11-22T19:09:13.332Z,7.63
2022-11-22T19:11:41.182Z,7.40
2022-11-22T19:14:09.625Z,5.55
2022-11-22T19:16:37.412Z,6.40
2022-11-22T19:19:05.201Z,6.30
2022-11-22T19:21:33.022Z,7.65
2022-11-22T19:24:00.849Z,6.25
2022-11-22T19:26:30.048Z,7.78
2022-11-22T19:29:02.325Z,7.18
2022-11-22T19:31:31.172Z,7.55
2022-11-22T19:33:59.593Z,5.88
2022-11-22T19:36:33.313Z,6.40
2022-11-22T19:39:03.088Z,6.45
2022-11-22T19:41:32.913Z,6.38
2022-11-22T19:44:01.125Z,6.53
2022-11-22T19:46:29.234Z,8.05
2022-11-22T19:48:58.576Z,6.30
2022-11-22T19:51:28.061Z,6.55
2022-11-22T19:53:58.677Z,7.40
2022-11-22T19:56:29.482Z,7.63
2022-11-22T19:59:00.543Z,6.83
2022-11-22T20:01:30.201Z,8.05
2022-11-22T20:04:02.036Z,8.82
2022-11-22T20:06:30.385Z,6.07
2022-11-22T20:09:02.311Z,7.18
2022-11-22T20:11:30.179Z,6.18
2022-11-22T20:13:59.447Z,6.95
2022-11-22T20:16:29.370Z,6.70
2022-11-22T20:18:58.549Z,5.75
2022-11-22T20:21:27.650Z,7.57
2022-11-22T20:23:56.937Z,6.35
2022-11-22T20:26:26.313Z,5.60
2022-11-22T20:28:59.637Z,6.28
2022-11-22T20:31:30.072Z,6.57
2022-11-22T20:33:59.898Z,6.15
2022-11-22T20:36:29.372Z,5.47
2022-11-22T20:38:57.828Z,4.87
2022-11-22T20:41:27.604Z,7.15
2022-11-22T20:43:55.494Z,4.68
2022-11-22T20:46:26.174Z,4.35
2022-11-22T20:48:58.432Z,6.10
2022-11-22T20:51:27.719Z,4.35
2022-11-22T20:53:56.524Z,4.57
2022-11-22T20:56:24.996Z,4.10
2022-11-22T20:58:53.278Z,5.38
2022-11-22T21:01:22.758Z,3.65
2022-11-22T21:03:52.551Z,4.50
2022-11-22T21:06:22.104Z,4.90
2022-11-22T21:08:50.357Z,4.88
2022-11-22T21:11:20.160Z,6.00
2022-11-22T21:13:48.462Z,6.38
2022-11-22T21:16:25.237Z,5.60
2022-11-22T21:18:56.220Z,6.17
2022-11-22T21:21:25.412Z,6.35
2022-11-22T21:23:54.812Z,5.82
2022-11-22T21:26:23.502Z,6.83
2022-11-22T21:28:52.522Z,5.53
2022-11-22T21:31:21.573Z,7.97
2022-11-22T21:33:49.895Z,6.10
2022-11-22T21:36:19.774Z,5.10
2022-11-22T21:38:47.834Z,4.40
2022-11-22T21:41:38.752Z,5.68
2022-11-22T21:44:05.397Z,5.10
2022-11-22T21:46:33.210Z,5.60
2022-11-22T21:49:00.990Z,5.95
2022-11-22T21:51:30.217Z,5.88
2022-11-22T21:53:58.771Z,4.25
2022-11-22T21:56:28.621Z,4.57
2022-11-22T21:58:56.697Z,4.80
2022-11-22T22:01:25.051Z,4.72
2022-11-22T22:03:53.348Z,5.15
2022-11-22T22:06:21.564Z,4.63
2022-11-22T22:08:50.705Z,5.68
2022-11-22T22:11:18.580Z,5.60
2022-11-22T22:13:46.439Z,5.80
2022-11-22T22:16:18.930Z,4.85
2022-11-22T22:18:47.474Z,7.07
2022-11-22T22:21:15.657Z,6.10
2022-11-22T22:23:44.430Z,5.57
2022-11-22T22:26:15.829Z,5.30
2022-11-22T22:28:44.846Z,5.45
2022-11-22T22:31:14.379Z,5.28
2022-11-22T22:33:42.782Z,4.78
2022-11-22T22:36:11.668Z,6.95
2022-11-22T22:38:39.664Z,6.37
2022-11-22T22:41:08.781Z,4.45
2022-11-22T22:43:39.169Z,4.90
2022-11-22T22:46:08.950Z,4.73
2022-11-22T22:48:36.775Z,4.55
2022-11-22T22:51:09.885Z,5.03
2022-11-22T22:53:37.787Z,3.97
2022-11-22T22:56:06.731Z,6.57
2022-11-22T22:58:35.053Z,4.95
2022-11-22T23:01:08.333Z,4.22
2022-11-22T23:03:37.809Z,4.40
2022-11-22T23:06:07.360Z,4.00
2022-11-22T23:08:35.345Z,4.95
2022-11-22T23:11:05.009Z,4.05
2022-11-22T23:13:32.909Z,5.47
2022-11-22T23:16:01.021Z,4.55
2022-11-22T23:18:30.292Z,4.35
2022-11-22T23:21:01.563Z,4.23
2022-11-22T23:23:29.984Z,4.65
2022-11-22T23:26:02.037Z,4.32
2022-11-22T23:28:30.352Z,4.07
2022-11-22T23:31:04.145Z,4.83
2022-11-22T23:33:33.221Z,3.42
2022-11-22T23:36:03.609Z,4.68
2022-11-22T23:38:31.411Z,5.80
2022-11-22T23:40:59.266Z,4.18
2022-11-22T23:43:27.478Z,5.00
2022-11-22T23:45:55.283Z,3.85
2022-11-22T23:48:23.148Z,4.60
2022-11-22T23:50:52.420Z,6.68
2022-11-22T23:53:20.377Z,4.55
2022-11-22T23:55:48.165Z,5.10
2022-11-22T23:58:16.035Z,7.00
